Moroni, Utah
Current Conditions -  °F | °C
As of 8:53 AM on Thursday 23 Oct 2014 (Local Time) from KPUC Reporting Station
Clear Clear  
Wind Chill: 47°   Ceiling: Unl
Heat Index: 49°   Visibility: 10mi
Dew Point: 31°   Wind: 5mph
Humidity: 50%   Direction: 30°NNE
Pressure: 30.27"   Gusts: NA
Location:  39.52°N, 111.59°W
Report Text: KPUC 231453Z AUTO 03004KT 10SM CLR 09/M01 A3027 RMK AO2 SLP228 T00941006 53013 TSNO
Loading
Personal Weather Stations






























Interactive Weather Map
Tropical Storm Tracking
New forecast layout! Learn more

10-Day Weather Forecast

Advertisements
Track Severe Weather on mobile